METAR AND TAF INFORMATION
METAR FOR OJAI
ADDS - METARS form results

(1852 UTC 23 April 2018)
Data provider http://aviationweather.gov/adds/metars/
 
METAR text: OJAI 231800Z 32004KT CAVOK 16/06 Q1017 NOSIG
Conditions at: OJAI (QUEEN ALIA INTL , JO) observed 1800 UTC 23 April 2018
Temperature: 16.0°C (61°F)
Dewpoint: 6.0°C (43°F) [RH = 51%]
Pressure (altimeter): 30.03 inches Hg (1017.0 mb)
Winds: from the NW (320 degrees) at 5 MPH (4 knots; 2.1 m/s)
Visibility: 6 or more miles (10+ km)
Ceiling: ceiling and visibility are OK
Clouds: unknown
Weather: no significant weather observed at this time

Forecast for: OJAI (QUEEN ALIA INTL , JO)
Text: TAF OJAI 231650Z 2318/2424 29006KT 7000 NSC
Forecast period: 1800 UTC 23 April 2018 to 0600 UTC 24 April 2018
Forecast type: FROM: standard forecast or significant change
Winds: from the WNW (290 degrees) at 7 MPH (6 knots; 3.1 m/s)
Visibility: 4 miles (7 km)
Clouds: not forecast
Weather: no significant weather forecast for this period
Forecast for: OJAI (QUEEN ALIA INTL , JO)
Text: TAF OJAI 231650Z 2318/2424 29006KT 7000 NSC
Forecast period: 1800 UTC 23 April 2018 to 0600 UTC 24 April 2018
Forecast type: FROM: standard forecast or significant change
Winds: from the WNW (290 degrees) at 7 MPH (6 knots; 3.1 m/s)
Visibility: 4 miles (7 km)
Clouds: not forecast
Weather: no significant weather forecast for this period
Forecast for: OJAI (QUEEN ALIA INTL , JO)
Text: TAF OJAI 231650Z 2318/2424 29006KT 7000 NSC
Forecast period: 0200 to 0600 UTC 24 April 2018
Forecast type: TEMPORARY: The following changes expected for less than half the time period
Winds: variable direction winds at 2 MPH (2 knots; 1.0 m/s)
Visibility: 3 miles (5 km)
Weather: HZ  (haze)
Forecast for: OJAI (QUEEN ALIA INTL , JO)
Text: TAF OJAI 231650Z 2318/2424 29006KT 7000 NSC
Forecast period: 0200 to 0600 UTC 24 April 2018
Forecast type: TEMPORARY: The following changes expected for less than half the time period
Winds: variable direction winds at 2 MPH (2 knots; 1.0 m/s)
Visibility: 3 miles (5 km)
Weather: HZ  (haze)
Forecast for: OJAI (QUEEN ALIA INTL , JO)
Text: TAF OJAI 231650Z 2318/2424 29006KT 7000 NSC
Forecast period: 0600 UTC 24 April 2018 to 0000 UTC 25 April 2018
Forecast type: BECOMING: Conditions expected to become as follows by 0800 UTC 24 April 2018
Winds: from the E (100 degrees) at 12 MPH (10 knots; 5.2 m/s)
Visibility: 4 miles (6 km)
Weather: no significant weather forecast for this period
Forecast for: OJAI (QUEEN ALIA INTL , JO)
Text: TAF OJAI 231650Z 2318/2424 29006KT 7000 NSC
Forecast period: 0600 UTC 24 April 2018 to 0000 UTC 25 April 2018
Forecast type: BECOMING: Conditions expected to become as follows by 0800 UTC 24 April 2018
Winds: from the E (100 degrees) at 12 MPH (10 knots; 5.2 m/s)
Visibility: 4 miles (6 km)
Weather: no significant weather forecast for this period

 AIRPORT MAP

 RUNWAY INFORMATION
Runway 08L Runway length 12008 ft Runway width 200 ft
Runway elevation 2360 ft Runway displaced threshold 0 ft Runway heading 81
Runway 26R Runway length 12008 ft Runway width 200 ft
Runway elevation 2395 ft Runway displaced threshold 0 ft Runway heading 261
Runway 08R Runway length 12008 ft Runway width 200 ft
Runway elevation 2357 ft Runway displaced threshold 0 ft Runway heading 81
Runway 26L Runway length 12008 ft Runway width 200 ft
Runway elevation 2365 ft Runway displaced threshold 0 ft Runway heading 261

 AIRPORT FREQUENCIES
Type APP Name AMMAN APP Frequency 128.9 MHZ
Type ATIS Name ATIS Frequency 127.6 MHZ
Type GND Name GND Frequency 121.9 MHZ
Type TWR Name TWR Frequency 119.8 MHZ

 AIRPORT NEAR NAVIGATION AIDS
Type NDB Name Queen Alia Frequency 399 KHZ
Type NDB Name Queen Alia Frequency 410 KHZ
Type VOR-DME Name Queen Alia Frequency 115200 KHZ



Created by Rayan Sharara,

Powered by Virtual Airlines Manager [v2.6.2]